createdAt,value
2022-12-11T00:00:15.695Z,0
2022-12-11T00:01:15.859Z,0
2022-12-11T00:02:16.076Z,0
2022-12-11T00:03:16.588Z,0
2022-12-11T00:04:16.936Z,0
2022-12-11T00:05:17.096Z,0
2022-12-11T00:06:17.263Z,0
2022-12-11T00:07:17.420Z,0
2022-12-11T00:08:17.656Z,0
2022-12-11T00:09:18.079Z,0
2022-12-11T00:10:18.229Z,0
2022-12-11T00:11:18.382Z,0
2022-12-11T00:12:18.532Z,0
2022-12-11T00:13:18.680Z,0
2022-12-11T00:14:18.834Z,0
2022-12-11T00:15:18.991Z,0
2022-12-11T00:16:22.542Z,0
2022-12-11T00:17:27.626Z,0
2022-12-11T00:18:27.788Z,0
2022-12-11T00:19:27.947Z,0
2022-12-11T00:20:28.101Z,0
2022-12-11T00:21:28.258Z,0
2022-12-11T00:22:28.418Z,0
2022-12-11T00:23:28.579Z,0
2022-12-11T00:24:28.724Z,0
2022-12-11T00:25:28.885Z,0
2022-12-11T00:26:29.037Z,0
2022-12-11T00:27:29.200Z,0
2022-12-11T00:28:29.354Z,0
2022-12-11T00:29:29.501Z,0
2022-12-11T00:30:29.654Z,0
2022-12-11T00:31:29.853Z,0
2022-12-11T00:32:32.586Z,0
2022-12-11T00:33:38.007Z,0
2022-12-11T00:34:38.165Z,0
2022-12-11T00:35:38.320Z,0
2022-12-11T00:36:38.471Z,0
2022-12-11T00:37:38.715Z,0
2022-12-11T00:38:39.114Z,0
2022-12-11T00:39:39.279Z,0
2022-12-11T00:40:39.430Z,0
2022-12-11T00:41:39.588Z,0
2022-12-11T00:42:39.747Z,0
2022-12-11T00:43:39.896Z,0
2022-12-11T00:44:40.046Z,0
2022-12-11T00:45:40.277Z,0
2022-12-11T00:46:40.566Z,0
2022-12-11T00:47:40.717Z,0
2022-12-11T00:48:40.867Z,0
2022-12-11T00:49:43.911Z,0
2022-12-11T00:50:50.470Z,0
2022-12-11T00:51:50.624Z,0
2022-12-11T00:52:50.773Z,0
2022-12-11T00:53:50.938Z,0
2022-12-11T00:54:51.093Z,0
2022-12-11T00:55:51.249Z,0
2022-12-11T00:56:51.400Z,0
2022-12-11T00:57:51.552Z,0
2022-12-11T00:58:51.699Z,0
2022-12-11T00:59:51.906Z,0
2022-12-11T01:00:52.058Z,0
2022-12-11T01:01:52.215Z,0
2022-12-11T01:02:52.392Z,0
2022-12-11T01:03:52.808Z,0
2022-12-11T01:04:52.965Z,0
2022-12-11T01:05:53.113Z,0
2022-12-11T01:06:53.255Z,0
2022-12-11T01:07:53.474Z,0
2022-12-11T01:08:53.744Z,0
2022-12-11T01:09:53.902Z,0
2022-12-11T01:10:54.104Z,0
2022-12-11T01:11:54.463Z,0
2022-12-11T01:12:54.613Z,0
2022-12-11T01:13:54.777Z,0
2022-12-11T01:14:54.940Z,0
2022-12-11T01:15:55.095Z,0
2022-12-11T01:16:55.280Z,0
2022-12-11T01:17:55.587Z,0
2022-12-11T01:18:55.744Z,0
2022-12-11T01:19:55.898Z,0
2022-12-11T01:20:56.052Z,0
2022-12-11T01:21:56.208Z,0
2022-12-11T01:22:56.360Z,0
2022-12-11T01:23:56.522Z,0
2022-12-11T01:24:56.676Z,0
2022-12-11T01:25:56.829Z,0
2022-12-11T01:26:56.984Z,0
2022-12-11T01:27:57.139Z,0
2022-12-11T01:28:57.303Z,0
2022-12-11T01:29:57.460Z,0
2022-12-11T01:30:57.630Z,0
2022-12-11T01:31:57.949Z,0
2022-12-11T01:32:58.107Z,0
2022-12-11T01:33:58.257Z,0
2022-12-11T01:34:58.414Z,0
2022-12-11T01:35:58.568Z,0
2022-12-11T01:36:58.718Z,0
2022-12-11T01:37:58.870Z,0
2022-12-11T01:38:59.029Z,0
2022-12-11T01:39:59.184Z,0
2022-12-11T01:40:59.335Z,0
2022-12-11T01:41:59.490Z,0
2022-12-11T01:42:59.645Z,0
2022-12-11T01:43:59.804Z,0
2022-12-11T01:44:59.957Z,0
2022-12-11T01:46:00.192Z,0
2022-12-11T01:47:00.466Z,0
2022-12-11T01:48:00.619Z,0
2022-12-11T01:49:00.782Z,0
2022-12-11T01:50:00.936Z,0
2022-12-11T01:51:01.075Z,0
2022-12-11T01:52:01.233Z,0
2022-12-11T01:53:01.390Z,0
2022-12-11T01:54:01.541Z,0
2022-12-11T01:55:01.717Z,0
2022-12-11T01:56:01.875Z,0
2022-12-11T01:57:02.030Z,0
2022-12-11T01:58:02.193Z,0
2022-12-11T01:59:02.346Z,0
2022-12-11T02:00:02.489Z,0
2022-12-11T02:01:02.697Z,0
2022-12-11T02:02:03.148Z,0
2022-12-11T02:03:03.562Z,0
2022-12-11T02:04:03.704Z,0
2022-12-11T02:05:03.864Z,0
2022-12-11T02:06:04.016Z,0
2022-12-11T02:07:04.175Z,0
2022-12-11T02:08:04.371Z,0
2022-12-11T02:09:04.673Z,0
2022-12-11T02:10:04.817Z,0
2022-12-11T02:11:04.973Z,0
2022-12-11T02:12:05.139Z,0
2022-12-11T02:13:05.296Z,0
2022-12-11T02:14:05.454Z,0
2022-12-11T02:15:05.615Z,0
2022-12-11T02:16:05.814Z,0
2022-12-11T02:17:06.146Z,0
2022-12-11T02:18:06.313Z,0
2022-12-11T02:19:06.468Z,0
2022-12-11T02:20:06.623Z,0
2022-12-11T02:21:06.776Z,0
2022-12-11T02:22:06.928Z,0
2022-12-11T02:23:07.087Z,0
2022-12-11T02:24:07.245Z,0
2022-12-11T02:25:07.614Z,0
2022-12-11T02:26:08.543Z,0
2022-12-11T02:27:08.696Z,0
2022-12-11T02:28:08.854Z,0
2022-12-11T02:29:09.011Z,0
2022-12-11T02:30:09.174Z,0
2022-12-11T02:31:09.406Z,0
2022-12-11T02:32:09.748Z,0
2022-12-11T02:33:09.908Z,0
2022-12-11T02:34:10.061Z,0
2022-12-11T02:35:10.429Z,0
2022-12-11T02:36:11.543Z,0
2022-12-11T02:37:11.694Z,0
2022-12-11T02:38:11.847Z,0
2022-12-11T02:39:12.000Z,0
2022-12-11T02:40:12.158Z,0
2022-12-11T02:41:12.307Z,0
2022-12-11T02:42:12.457Z,0
2022-12-11T02:43:12.609Z,0
2022-12-11T02:44:12.765Z,0
2022-12-11T02:45:13.116Z,0
2022-12-11T02:46:13.932Z,0
2022-12-11T02:47:14.341Z,0
2022-12-11T02:48:14.501Z,0
2022-12-11T02:49:14.655Z,0
2022-12-11T02:50:14.805Z,0
2022-12-11T02:51:14.961Z,0
2022-12-11T02:52:15.112Z,0
2022-12-11T02:53:15.267Z,0
2022-12-11T02:54:15.422Z,0
2022-12-11T02:55:15.580Z,0
2022-12-11T02:56:15.731Z,0
2022-12-11T02:57:15.879Z,0
2022-12-11T02:58:16.032Z,0
2022-12-11T02:59:16.185Z,0
2022-12-11T03:00:16.335Z,0
2022-12-11T03:01:16.529Z,0
2022-12-11T03:02:16.889Z,0
2022-12-11T03:03:17.367Z,0
2022-12-11T03:04:17.524Z,0
2022-12-11T03:05:17.686Z,0
2022-12-11T03:06:17.842Z,0
2022-12-11T03:07:18.024Z,0
2022-12-11T03:08:18.289Z,0
2022-12-11T03:09:18.505Z,0
2022-12-11T03:10:18.656Z,0
2022-12-11T03:11:18.803Z,0
2022-12-11T03:12:18.952Z,0
2022-12-11T03:13:19.098Z,0
2022-12-11T03:14:19.252Z,0
2022-12-11T03:15:19.435Z,0
2022-12-11T03:16:19.633Z,0
2022-12-11T03:17:19.995Z,0
2022-12-11T03:18:20.179Z,0
2022-12-11T03:19:20.334Z,0
2022-12-11T03:20:20.486Z,0
2022-12-11T03:21:20.640Z,0
2022-12-11T03:22:20.790Z,0
2022-12-11T03:23:20.940Z,0
2022-12-11T03:24:21.101Z,0
2022-12-11T03:25:21.250Z,0
2022-12-11T03:26:21.398Z,0
2022-12-11T03:27:21.549Z,0
2022-12-11T03:28:21.700Z,0
2022-12-11T03:29:21.851Z,0
2022-12-11T03:30:22.005Z,0
2022-12-11T03:31:22.205Z,0
2022-12-11T03:32:22.356Z,0
2022-12-11T03:33:22.506Z,0
2022-12-11T03:34:22.667Z,0
2022-12-11T03:35:22.832Z,0
2022-12-11T03:36:22.980Z,0
2022-12-11T03:37:23.132Z,0
2022-12-11T03:38:23.275Z,0
2022-12-11T03:39:23.427Z,0
2022-12-11T03:40:23.583Z,0
2022-12-11T03:41:23.739Z,0
2022-12-11T03:42:23.886Z,0
2022-12-11T03:43:24.040Z,0
2022-12-11T03:44:24.199Z,0
2022-12-11T03:45:24.355Z,0
2022-12-11T03:46:24.552Z,0
2022-12-11T03:47:24.823Z,0
2022-12-11T03:48:24.977Z,0
2022-12-11T03:49:25.153Z,0
2022-12-11T03:50:25.304Z,0
2022-12-11T03:51:25.461Z,0
2022-12-11T03:52:25.615Z,0
2022-12-11T03:53:25.766Z,0
2022-12-11T03:54:25.918Z,0
2022-12-11T03:55:26.074Z,0
2022-12-11T03:56:26.223Z,0
2022-12-11T03:57:26.375Z,0
2022-12-11T03:58:26.525Z,0
2022-12-11T03:59:26.677Z,0
2022-12-11T04:00:26.828Z,0
2022-12-11T04:01:27.023Z,0
2022-12-11T04:02:27.374Z,0
2022-12-11T04:03:27.523Z,0
2022-12-11T04:04:27.719Z,0
2022-12-11T04:05:28.172Z,0
2022-12-11T04:06:28.330Z,0
2022-12-11T04:07:28.484Z,0
2022-12-11T04:08:28.746Z,0
2022-12-11T04:09:29.061Z,0
2022-12-11T04:10:29.215Z,0
2022-12-11T04:11:29.372Z,0
2022-12-11T04:12:29.529Z,0
2022-12-11T04:13:29.698Z,0
2022-12-11T04:14:29.982Z,0
2022-12-11T04:15:30.135Z,0
2022-12-11T04:16:30.284Z,0
2022-12-11T04:17:30.428Z,0
2022-12-11T04:18:30.583Z,0
2022-12-11T04:19:30.731Z,0
2022-12-11T04:20:30.887Z,0
2022-12-11T04:21:33.968Z,0
2022-12-11T04:22:40.111Z,0
2022-12-11T04:23:40.280Z,0
2022-12-11T04:24:40.448Z,0
2022-12-11T04:25:40.598Z,0
2022-12-11T04:26:40.758Z,0
2022-12-11T04:27:40.910Z,0
2022-12-11T04:28:41.061Z,0
2022-12-11T04:29:41.213Z,0
2022-12-11T04:30:41.529Z,0
2022-12-11T04:31:41.908Z,0
2022-12-11T04:32:42.066Z,0
2022-12-11T04:33:42.216Z,0
2022-12-11T04:34:42.371Z,0
2022-12-11T04:35:42.522Z,0
2022-12-11T04:36:42.673Z,0
2022-12-11T04:37:42.832Z,0
2022-12-11T04:38:42.994Z,0
2022-12-11T04:39:43.148Z,0
2022-12-11T04:40:43.319Z,0
2022-12-11T04:41:43.466Z,0
2022-12-11T04:42:43.623Z,0
2022-12-11T04:43:43.779Z,0
2022-12-11T04:44:43.926Z,0
2022-12-11T04:45:44.075Z,0
2022-12-11T04:46:44.269Z,0
2022-12-11T04:47:44.523Z,0
2022-12-11T04:48:44.675Z,0
2022-12-11T04:49:44.827Z,0
2022-12-11T04:50:44.972Z,0
2022-12-11T04:51:45.112Z,0
2022-12-11T04:52:45.264Z,0
2022-12-11T04:53:45.416Z,0
2022-12-11T04:54:45.576Z,0
2022-12-11T04:55:45.734Z,0
2022-12-11T04:56:45.882Z,0
2022-12-11T04:57:46.028Z,0
2022-12-11T04:58:46.176Z,0
2022-12-11T04:59:46.340Z,0
2022-12-11T05:00:46.496Z,0
2022-12-11T05:01:46.680Z,0
2022-12-11T05:02:47.033Z,0
2022-12-11T05:03:47.284Z,0
2022-12-11T05:04:47.439Z,0
2022-12-11T05:05:47.617Z,0
2022-12-11T05:06:47.768Z,0
2022-12-11T05:07:47.948Z,0
2022-12-11T05:08:48.216Z,0
2022-12-11T05:09:48.363Z,0
2022-12-11T05:10:50.139Z,0
2022-12-11T05:11:50.415Z,0
2022-12-11T05:12:50.570Z,0
2022-12-11T05:13:50.718Z,0
2022-12-11T05:14:50.876Z,0
2022-12-11T05:15:51.044Z,0
2022-12-11T05:16:51.414Z,0
2022-12-11T05:17:51.560Z,0
2022-12-11T05:18:51.710Z,0
2022-12-11T05:19:51.875Z,0
2022-12-11T05:20:52.028Z,0
2022-12-11T05:21:52.178Z,0
2022-12-11T05:22:52.369Z,0
2022-12-11T05:23:52.520Z,0
2022-12-11T05:24:52.674Z,0
2022-12-11T05:25:52.830Z,0
2022-12-11T05:26:52.977Z,0
2022-12-11T05:27:53.131Z,0
2022-12-11T05:28:53.288Z,0
2022-12-11T05:29:57.828Z,0
2022-12-11T05:31:00.040Z,0
2022-12-11T05:32:00.474Z,0
2022-12-11T05:33:00.624Z,0
2022-12-11T05:34:00.783Z,0
2022-12-11T05:35:00.944Z,0
2022-12-11T05:36:01.093Z,0
2022-12-11T05:37:01.244Z,0
2022-12-11T05:38:01.396Z,0
2022-12-11T05:39:01.566Z,0
2022-12-11T05:40:01.724Z,0
2022-12-11T05:41:01.877Z,0
2022-12-11T05:42:02.039Z,0
2022-12-11T05:43:02.191Z,0
2022-12-11T05:44:02.357Z,0
2022-12-11T05:45:02.513Z,0
2022-12-11T05:46:02.680Z,0
2022-12-11T05:47:02.842Z,0
2022-12-11T05:48:03.163Z,0
2022-12-11T05:49:03.317Z,0
2022-12-11T05:50:03.471Z,0
2022-12-11T05:51:03.627Z,0
2022-12-11T05:52:03.777Z,0
2022-12-11T05:53:03.931Z,0
2022-12-11T05:54:04.088Z,0
2022-12-11T05:55:04.247Z,0
2022-12-11T05:56:04.404Z,0
2022-12-11T05:57:04.557Z,0
2022-12-11T05:58:04.708Z,0
2022-12-11T05:59:04.863Z,0
2022-12-11T06:00:05.020Z,0
2022-12-11T06:01:05.176Z,0
2022-12-11T06:02:05.459Z,0
2022-12-11T06:03:05.948Z,0
2022-12-11T06:04:06.549Z,0
2022-12-11T06:05:06.713Z,0
2022-12-11T06:06:06.852Z,0
2022-12-11T06:07:07.009Z,0
2022-12-11T06:08:07.230Z,0
2022-12-11T06:09:07.526Z,0
2022-12-11T06:10:07.690Z,0
2022-12-11T06:11:07.836Z,0
2022-12-11T06:12:07.989Z,0
2022-12-11T06:13:08.148Z,0
2022-12-11T06:14:08.299Z,0
2022-12-11T06:15:08.621Z,0
2022-12-11T06:16:09.829Z,0
2022-12-11T06:17:10.264Z,0
2022-12-11T06:18:10.413Z,0
2022-12-11T06:19:10.578Z,0
2022-12-11T06:20:10.756Z,0
2022-12-11T06:21:10.915Z,0
2022-12-11T06:22:11.067Z,0
2022-12-11T06:23:11.220Z,0
2022-12-11T06:24:11.372Z,0
2022-12-11T06:25:11.797Z,0
2022-12-11T06:26:12.616Z,0
2022-12-11T06:27:12.769Z,0
2022-12-11T06:28:12.925Z,0
2022-12-11T06:29:13.335Z,0
2022-12-11T06:30:13.498Z,0
2022-12-11T06:31:13.676Z,0
2022-12-11T06:32:16.124Z,0
2022-12-11T06:33:16.278Z,0
2022-12-11T06:34:16.427Z,0
2022-12-11T06:35:16.598Z,2
2022-12-11T06:36:16.765Z,3
2022-12-11T06:37:16.917Z,4
2022-12-11T06:38:17.062Z,5
2022-12-11T06:39:17.212Z,7
2022-12-11T06:40:17.389Z,8
2022-12-11T06:41:17.545Z,10
2022-12-11T06:42:17.703Z,11
2022-12-11T06:43:17.856Z,13
2022-12-11T06:44:18.002Z,17
2022-12-11T06:45:18.162Z,19
2022-12-11T06:46:18.380Z,21
2022-12-11T06:47:18.792Z,27
2022-12-11T06:48:18.942Z,30
2022-12-11T06:49:19.091Z,37
2022-12-11T06:50:19.241Z,41
2022-12-11T06:51:19.426Z,46
2022-12-11T06:52:19.584Z,51
2022-12-11T06:53:19.738Z,57
2022-12-11T06:54:19.893Z,63
2022-12-11T06:55:20.046Z,70
2022-12-11T06:56:20.199Z,77
2022-12-11T06:57:20.338Z,84.96
2022-12-11T06:58:20.479Z,94
2022-12-11T06:59:20.633Z,110
2022-12-11T07:00:20.782Z,110
2022-12-11T07:01:21.021Z,130
2022-12-11T07:02:21.637Z,150
2022-12-11T07:03:21.974Z,150
2022-12-11T07:04:22.132Z,169.92
2022-12-11T07:05:22.282Z,189.92
2022-12-11T07:06:22.438Z,189.92
2022-12-11T07:07:22.606Z,209.92
2022-12-11T07:08:22.810Z,209.92
2022-12-11T07:09:23.102Z,240
2022-12-11T07:10:23.262Z,240
2022-12-11T07:11:23.417Z,240
2022-12-11T07:12:23.576Z,269.92
2022-12-11T07:13:23.723Z,269.92
2022-12-11T07:14:23.878Z,300
2022-12-11T07:15:24.038Z,329.92
2022-12-11T07:16:24.216Z,329.92
2022-12-11T07:17:24.517Z,329.92
2022-12-11T07:18:24.671Z,329.92
2022-12-11T07:19:24.821Z,369.92
2022-12-11T07:20:24.970Z,369.92
2022-12-11T07:21:25.130Z,409.92
2022-12-11T07:22:25.282Z,409.92
2022-12-11T07:23:25.438Z,459.84
2022-12-11T07:24:25.595Z,509.76
2022-12-11T07:25:25.758Z,509.76
2022-12-11T07:26:25.910Z,569.92
2022-12-11T07:27:26.062Z,640
2022-12-11T07:28:26.219Z,640
2022-12-11T07:29:26.374Z,709.76
2022-12-11T07:30:26.522Z,789.76
2022-12-11T07:31:26.747Z,789.76
2022-12-11T07:32:27.230Z,869.76
2022-12-11T07:33:27.744Z,869.76
2022-12-11T07:34:27.897Z,1739.52
2022-12-11T07:35:28.048Z,1739.52
2022-12-11T07:36:28.207Z,1999.36
2022-12-11T07:37:28.371Z,2479.36
2022-12-11T07:38:28.524Z,3159.04
2022-12-11T07:39:28.679Z,3878.4
2022-12-11T07:40:28.844Z,4277.76
2022-12-11T07:41:29.021Z,4277.76
2022-12-11T07:42:29.192Z,4277.76
2022-12-11T07:43:29.356Z,4277.76
2022-12-11T07:44:29.509Z,3840
2022-12-11T07:45:29.765Z,3399.68
2022-12-11T07:46:30.062Z,3399.68
2022-12-11T07:47:30.205Z,3737.6
2022-12-11T07:48:30.368Z,4160
2022-12-11T07:49:30.517Z,4618.24
2022-12-11T07:50:32.870Z,5237.76
2022-12-11T07:51:40.156Z,5836.8
2022-12-11T07:52:40.310Z,5158.4
2022-12-11T07:53:40.461Z,4597.76
2022-12-11T07:54:40.618Z,4139.52
2022-12-11T07:55:40.775Z,4139.52
2022-12-11T07:56:43.838Z,4139.52
2022-12-11T07:57:46.543Z,5237.76
2022-12-11T07:58:46.699Z,6435.84
2022-12-11T07:59:46.855Z,6435.84
2022-12-11T08:00:47.019Z,5739.52
2022-12-11T08:01:47.274Z,5137.92
2022-12-11T08:02:47.485Z,5137.92
2022-12-11T08:03:47.782Z,5137.92
2022-12-11T08:04:47.935Z,6497.28
2022-12-11T08:05:48.091Z,7976.96
2022-12-11T08:06:48.255Z,8878.08
2022-12-11T08:07:48.449Z,21196.8
2022-12-11T08:08:48.706Z,18595.84
2022-12-11T08:09:48.860Z,14397.44
2022-12-11T08:10:49.015Z,12390.4
2022-12-11T08:11:49.169Z,8396.8
2022-12-11T08:12:49.324Z,6778.88
2022-12-11T08:13:49.478Z,6778.88
2022-12-11T08:14:49.633Z,8755.2
2022-12-11T08:15:49.782Z,9815.04
2022-12-11T08:16:49.979Z,10997.76
2022-12-11T08:17:50.321Z,12195.84
2022-12-11T08:18:50.471Z,12195.84
2022-12-11T08:19:50.645Z,13598.72
2022-12-11T08:20:50.793Z,13598.72
2022-12-11T08:21:50.957Z,14991.36
2022-12-11T08:22:54.650Z,14991.36
2022-12-11T08:23:59.555Z,15595.52
2022-12-11T08:24:59.705Z,15595.52
2022-12-11T08:25:59.851Z,15595.52
2022-12-11T08:27:00.030Z,16599.04
2022-12-11T08:28:00.182Z,16599.04
2022-12-11T08:29:00.332Z,16599.04
2022-12-11T08:30:00.485Z,16599.04
2022-12-11T08:31:00.707Z,16599.04
2022-12-11T08:32:01.055Z,16599.04
2022-12-11T08:33:01.209Z,16599.04
2022-12-11T08:34:01.358Z,16599.04
2022-12-11T08:35:01.517Z,16599.04
2022-12-11T08:36:01.756Z,16599.04
2022-12-11T08:37:02.068Z,16199.68
2022-12-11T08:38:02.251Z,16199.68
2022-12-11T08:39:02.457Z,16199.68
2022-12-11T08:40:02.631Z,16199.68
2022-12-11T08:41:02.796Z,16199.68
2022-12-11T08:42:02.953Z,16199.68
2022-12-11T08:43:03.113Z,16199.68
2022-12-11T08:44:05.466Z,16199.68
2022-12-11T08:45:08.649Z,14192.64
2022-12-11T08:46:09.922Z,12195.84
2022-12-11T08:47:10.239Z,12195.84
2022-12-11T08:48:10.389Z,12195.84
2022-12-11T08:49:10.541Z,12195.84
2022-12-11T08:50:10.694Z,13793.28
2022-12-11T08:51:10.850Z,15196.16
2022-12-11T08:52:11.008Z,16793.6
2022-12-11T08:53:11.166Z,18595.84
2022-12-11T08:54:11.302Z,18595.84
2022-12-11T08:55:11.674Z,18595.84
2022-12-11T08:56:12.760Z,20592.64
2022-12-11T08:57:12.920Z,20592.64
2022-12-11T08:58:13.085Z,20592.64
2022-12-11T08:59:13.237Z,20592.64
2022-12-11T09:00:13.386Z,20592.64
2022-12-11T09:01:13.604Z,22794.24
2022-12-11T09:02:13.977Z,22794.24
2022-12-11T09:03:14.385Z,22794.24
2022-12-11T09:04:14.531Z,22794.24
2022-12-11T09:05:14.685Z,22794.24
2022-12-11T09:06:14.832Z,22794.24
2022-12-11T09:07:14.985Z,22794.24
2022-12-11T09:08:15.159Z,22794.24
2022-12-11T09:09:15.468Z,22794.24
2022-12-11T09:10:15.629Z,22794.24
2022-12-11T09:11:15.787Z,25190.4
2022-12-11T09:12:15.939Z,25190.4
2022-12-11T09:13:16.089Z,25190.4
2022-12-11T09:14:16.235Z,25190.4
2022-12-11T09:15:16.395Z,25190.4
2022-12-11T09:16:16.578Z,25190.4
2022-12-11T09:17:16.904Z,25190.4
2022-12-11T09:18:17.052Z,25190.4
2022-12-11T09:19:17.205Z,25190.4
2022-12-11T09:20:17.346Z,25190.4
2022-12-11T09:21:17.508Z,27381.76
2022-12-11T09:22:17.660Z,27381.76
2022-12-11T09:23:17.816Z,27381.76
2022-12-11T09:24:17.975Z,27381.76
2022-12-11T09:25:18.134Z,27381.76
2022-12-11T09:26:18.284Z,27381.76
2022-12-11T09:27:18.447Z,27381.76
2022-12-11T09:28:18.600Z,27381.76
2022-12-11T09:29:18.749Z,27381.76
2022-12-11T09:30:18.902Z,27381.76
2022-12-11T09:31:19.124Z,27791.36
2022-12-11T09:32:19.490Z,27791.36
2022-12-11T09:33:19.640Z,27791.36
2022-12-11T09:34:19.777Z,27791.36
2022-12-11T09:35:27.480Z,27586.56
2022-12-11T09:36:27.640Z,27586.56
2022-12-11T09:37:27.796Z,27586.56
2022-12-11T09:38:27.960Z,27586.56
2022-12-11T09:39:28.113Z,27586.56
2022-12-11T09:40:28.269Z,29184
2022-12-11T09:41:28.425Z,29184
2022-12-11T09:42:28.584Z,29184
2022-12-11T09:43:28.739Z,29184
2022-12-11T09:44:28.889Z,29184
2022-12-11T09:45:29.042Z,29184
2022-12-11T09:46:33.657Z,29184
2022-12-11T09:47:34.713Z,29593.6
2022-12-11T09:48:34.860Z,29593.6
2022-12-11T09:49:35.016Z,29593.6
2022-12-11T09:50:35.181Z,29798.4
2022-12-11T09:51:35.329Z,29798.4
2022-12-11T09:52:35.494Z,29798.4
2022-12-11T09:53:35.665Z,29798.4
2022-12-11T09:54:35.825Z,29798.4
2022-12-11T09:55:35.976Z,29798.4
2022-12-11T09:56:36.134Z,29798.4
2022-12-11T09:57:36.286Z,29798.4
2022-12-11T09:58:36.439Z,29798.4
2022-12-11T09:59:36.589Z,29798.4
2022-12-11T10:00:36.742Z,30781.44
2022-12-11T10:01:36.936Z,30781.44
2022-12-11T10:02:37.282Z,30781.44
2022-12-11T10:03:37.562Z,30781.44
2022-12-11T10:04:37.719Z,30781.44
2022-12-11T10:05:37.873Z,30781.44
2022-12-11T10:06:38.027Z,30781.44
2022-12-11T10:07:38.177Z,30781.44
2022-12-11T10:08:38.327Z,30781.44
2022-12-11T10:09:38.480Z,30781.44
2022-12-11T10:10:38.633Z,30781.44
2022-12-11T10:11:38.787Z,30781.44
2022-12-11T10:12:38.952Z,30781.44
2022-12-11T10:13:39.107Z,30781.44
2022-12-11T10:14:39.280Z,30781.44
2022-12-11T10:15:39.637Z,30781.44
2022-12-11T10:16:39.970Z,30781.44
2022-12-11T10:17:40.126Z,33996.8
2022-12-11T10:18:40.281Z,33996.8
2022-12-11T10:19:40.436Z,33996.8
2022-12-11T10:20:40.585Z,33996.8
2022-12-11T10:21:40.761Z,33996.8
2022-12-11T10:22:40.914Z,33996.8
2022-12-11T10:23:41.064Z,33996.8
2022-12-11T10:25:09.826Z,33996.8
2022-12-11T10:26:12.916Z,35389.44
2022-12-11T10:27:13.069Z,35389.44
2022-12-11T10:28:13.227Z,35389.44
2022-12-11T10:29:13.380Z,35389.44
2022-12-11T10:30:13.539Z,35389.44
2022-12-11T10:31:13.757Z,35389.44
2022-12-11T10:32:14.178Z,35389.44
2022-12-11T10:33:14.328Z,35389.44
2022-12-11T10:34:14.883Z,35389.44
2022-12-11T10:35:15.038Z,35389.44
2022-12-11T10:36:15.188Z,35389.44
2022-12-11T10:37:15.344Z,35389.44
2022-12-11T10:38:15.498Z,36782.08
2022-12-11T10:39:15.652Z,36782.08
2022-12-11T10:40:15.865Z,36782.08
2022-12-11T10:41:16.214Z,36782.08
2022-12-11T10:42:16.365Z,32788.48
2022-12-11T10:43:16.522Z,32788.48
2022-12-11T10:44:16.675Z,29388.8
2022-12-11T10:45:16.826Z,29388.8
2022-12-11T10:46:17.004Z,29388.8
2022-12-11T10:47:17.317Z,29388.8
2022-12-11T10:48:17.475Z,29388.8
2022-12-11T10:49:17.630Z,29388.8
2022-12-11T10:50:17.787Z,32583.68
2022-12-11T10:51:17.939Z,32583.68
2022-12-11T10:52:18.091Z,35983.36
2022-12-11T10:53:18.247Z,35983.36
2022-12-11T10:54:18.402Z,35983.36
2022-12-11T10:55:18.565Z,35983.36
2022-12-11T10:56:18.721Z,35983.36
2022-12-11T10:57:18.882Z,35983.36
2022-12-11T10:58:19.041Z,35983.36
2022-12-11T10:59:23.916Z,35983.36
2022-12-11T11:00:24.476Z,34181.12
2022-12-11T11:01:24.685Z,39997.44
2022-12-11T11:02:24.996Z,39997.44
2022-12-11T11:03:25.311Z,44564.48
2022-12-11T11:04:25.463Z,44564.48
2022-12-11T11:05:25.608Z,44564.48
2022-12-11T11:06:25.757Z,44564.48
2022-12-11T11:07:25.912Z,44564.48
2022-12-11T11:08:26.128Z,44564.48
2022-12-11T11:09:26.442Z,44564.48
2022-12-11T11:10:26.596Z,39792.64
2022-12-11T11:11:26.751Z,39792.64
2022-12-11T11:12:26.916Z,35594.24
2022-12-11T11:13:27.075Z,31784.96
2022-12-11T11:14:27.237Z,28590.08
2022-12-11T11:15:27.393Z,28590.08
2022-12-11T11:16:27.604Z,28590.08
2022-12-11T11:17:32.069Z,32399.36
2022-12-11T11:18:39.676Z,36392.96
2022-12-11T11:19:39.833Z,40386.56
2022-12-11T11:20:39.983Z,40386.56
2022-12-11T11:21:40.135Z,40386.56
2022-12-11T11:22:40.299Z,44769.28
2022-12-11T11:23:44.868Z,44769.28
2022-12-11T11:24:53.804Z,49561.6
2022-12-11T11:25:53.942Z,49561.6
2022-12-11T11:27:12.587Z,54763.52
2022-12-11T11:28:14.378Z,60375.04
2022-12-11T11:29:14.532Z,60375.04
2022-12-11T11:30:14.681Z,60375.04
2022-12-11T11:31:14.870Z,52961.28
2022-12-11T11:32:15.210Z,41984
2022-12-11T11:33:15.360Z,37580.8
2022-12-11T11:34:15.509Z,33198.08
2022-12-11T11:35:15.666Z,29388.8
2022-12-11T11:36:15.820Z,23183.36
2022-12-11T11:37:15.972Z,17991.68
2022-12-11T11:38:16.124Z,14192.64
2022-12-11T11:39:16.274Z,12595.2
2022-12-11T11:40:16.425Z,12595.2
2022-12-11T11:41:16.579Z,12595.2
2022-12-11T11:42:16.740Z,12595.2
2022-12-11T11:43:16.891Z,14592
2022-12-11T11:44:17.041Z,14592
2022-12-11T11:45:17.198Z,12994.56
2022-12-11T11:46:17.401Z,11397.12
2022-12-11T11:47:17.639Z,12800
2022-12-11T11:48:17.789Z,20398.08
2022-12-11T11:49:17.944Z,22589.44
2022-12-11T11:50:18.092Z,22589.44
2022-12-11T11:51:18.235Z,20193.28
2022-12-11T11:52:18.384Z,26398.72
2022-12-11T11:53:18.536Z,29798.4
2022-12-11T11:54:18.691Z,32993.28
2022-12-11T11:55:22.266Z,29388.8
2022-12-11T11:56:23.828Z,22999.04
2022-12-11T11:57:23.986Z,20398.08
2022-12-11T11:58:24.257Z,20398.08
2022-12-11T11:59:24.416Z,20398.08
2022-12-11T12:00:27.556Z,17991.68
2022-12-11T12:01:34.290Z,16998.4
2022-12-11T12:02:34.510Z,16998.4
2022-12-11T12:03:34.922Z,16998.4
2022-12-11T12:04:35.085Z,15994.88
2022-12-11T12:05:35.352Z,14192.64
2022-12-11T12:06:35.511Z,14192.64
2022-12-11T12:07:35.686Z,14192.64
2022-12-11T12:08:35.838Z,12595.2
2022-12-11T12:09:36.082Z,12595.2
2022-12-11T12:10:36.401Z,15790.08
2022-12-11T12:11:36.551Z,19599.36
2022-12-11T12:12:36.713Z,21790.72
2022-12-11T12:13:52.258Z,21790.72
2022-12-11T12:14:52.913Z,18995.2
2022-12-11T12:15:53.509Z,18995.2
2022-12-11T12:16:54.131Z,18995.2
2022-12-11T12:17:55.916Z,18995.2
2022-12-11T12:18:56.720Z,18995.2
2022-12-11T12:19:56.885Z,20992
2022-12-11T12:20:57.041Z,26193.92
2022-12-11T12:21:57.203Z,28999.68
2022-12-11T12:22:57.357Z,32194.56
2022-12-11T12:23:57.512Z,32194.56
2022-12-11T12:24:57.664Z,28385.28
2022-12-11T12:25:57.813Z,28385.28
2022-12-11T12:26:57.966Z,28385.28
2022-12-11T12:27:58.121Z,28385.28
2022-12-11T12:28:58.268Z,31580.16
2022-12-11T12:29:58.417Z,34979.84
2022-12-11T12:30:58.568Z,34979.84
2022-12-11T12:31:58.764Z,34979.84
2022-12-11T12:32:59.053Z,34979.84
2022-12-11T12:33:59.209Z,34979.84
2022-12-11T12:34:59.364Z,34979.84
2022-12-11T12:36:03.525Z,34979.84
2022-12-11T12:37:07.624Z,33382.4
2022-12-11T12:38:07.774Z,33382.4
2022-12-11T12:39:08.009Z,33382.4
2022-12-11T12:40:08.167Z,36597.76
2022-12-11T12:41:08.320Z,36597.76
2022-12-11T12:42:08.469Z,36597.76
2022-12-11T12:43:08.622Z,32788.48
2022-12-11T12:44:08.838Z,28999.68
2022-12-11T12:45:09.451Z,25395.2
2022-12-11T12:46:10.816Z,22589.44
2022-12-11T12:47:11.222Z,22589.44
2022-12-11T12:48:11.385Z,22589.44
2022-12-11T12:49:11.539Z,24985.6
2022-12-11T12:50:11.687Z,24985.6
2022-12-11T12:51:11.838Z,24985.6
2022-12-11T12:52:12.000Z,22384.64
2022-12-11T12:53:12.153Z,22384.64
2022-12-11T12:54:12.673Z,24780.8
2022-12-11T12:55:13.155Z,24780.8
2022-12-11T12:56:14.647Z,24780.8
2022-12-11T12:57:14.803Z,24780.8
2022-12-11T12:58:14.956Z,24780.8
2022-12-11T12:59:15.100Z,24780.8
2022-12-11T13:00:15.363Z,24780.8
2022-12-11T13:01:15.621Z,24780.8
2022-12-11T13:02:16.120Z,24780.8
2022-12-11T13:03:16.468Z,22179.84
2022-12-11T13:04:32.569Z,22179.84
2022-12-11T13:05:56.851Z,14592
2022-12-11T13:06:57.004Z,12994.56
2022-12-11T13:07:57.223Z,11591.68
2022-12-11T13:08:57.678Z,11591.68
2022-12-11T13:09:57.825Z,14192.64
2022-12-11T13:10:57.973Z,14192.64
2022-12-11T13:11:58.126Z,12595.2
2022-12-11T13:12:58.280Z,12595.2
2022-12-11T13:13:58.438Z,11192.32
2022-12-11T13:14:58.587Z,9937.92
2022-12-11T13:15:58.820Z,8939.52
2022-12-11T13:16:59.087Z,8939.52
2022-12-11T13:17:59.232Z,8038.4
2022-12-11T13:18:59.391Z,8038.4
2022-12-11T13:19:59.544Z,8038.4
2022-12-11T13:20:59.694Z,7219.2
2022-12-11T13:21:59.848Z,8079.36
2022-12-11T13:23:00.014Z,10199.04
2022-12-11T13:24:00.192Z,12994.56